Home > Products > Valid Products > TAF

000
FTUS43 KARX 040525
TAFRST
TAF
KRST 040525Z 0406/0506 36013KT P6SM SKC
     FM041500 35015G25KT P6SM SCT040
     FM050000 35007KT P6SM SKC=



000
FTUS43 KARX 040525
TAFLSE
TAF
KLSE 040525Z 0406/0506 36008KT P6SM SCT100
     FM041300 34011KT P6SM SKC
     FM041500 34013G22KT P6SM SCT040
      TEMPO 0417/0420 BKN040
     FM050000 36006KT P6SM SKC=



000
FTUS43 KARX 040525
TAFLSE
TAF
KLSE 040525Z 0406/0506 36008KT P6SM SCT100
     FM041300 34011KT P6SM SKC
     FM041500 34013G22KT P6SM SCT040
      TEMPO 0417/0420 BKN040
     FM050000 36006KT P6SM SKC=



000
FTUS43 KARX 040525
TAFRST
TAF
KRST 040525Z 0406/0506 36013KT P6SM SKC
     FM041500 35015G25KT P6SM SCT040
     FM050000 35007KT P6SM SKC=



000
FTUS43 KARX 040041 AAA
TAFLSE
TAF AMD
KLSE 040041Z 0401/0424 27011KT P6SM BKN090
      TEMPO 0401/0402 3SM TSRA BKN040CB
     FM040200 32008KT P6SM SCT090
     FM041300 34011KT P6SM SKC
     FM041500 34015G25KT P6SM SCT040=



000
FTUS43 KARX 040041 AAA
TAFLSE
TAF AMD
KLSE 040041Z 0401/0424 27011KT P6SM BKN090
      TEMPO 0401/0402 3SM TSRA BKN040CB
     FM040200 32008KT P6SM SCT090
     FM041300 34011KT P6SM SKC
     FM041500 34015G25KT P6SM SCT040=



000
FTUS43 KARX 032330
TAFLSE
TAF
KLSE 032330Z 0400/0424 27011KT P6SM BKN090
      TEMPO 0400/0402 6SM -SHRA BKN040
     FM040200 32008KT P6SM SCT090
     FM041300 34011KT P6SM SKC
     FM041500 34015G25KT P6SM SCT040=



000
FTUS43 KARX 032330
TAFRST
TAF
KRST 032330Z 0400/0424 28014KT P6SM BKN110
      TEMPO 0400/0402 P6SM -SHRA BKN045
     FM040200 32010KT P6SM SCT080
     FM040500 35013KT P6SM SKC
     FM041500 35015G25KT P6SM SCT040=



000
FTUS43 KARX 031720
TAFRST
TAF
KRST 031720Z 0318/0418 28017G27KT P6SM SCT060
     FM032300 30016G25KT P6SM SCT060
      TEMPO 0323/0401 6SM -SHRA BKN045
     FM040100 34010KT P6SM SCT080
     FM041500 35015G25KT P6SM SCT050=



000
FTUS43 KARX 031720
TAFLSE
TAF
KLSE 031720Z 0318/0418 26013G24KT P6SM SCT060
     FM040000 30011KT P6SM SCT060
      TEMPO 0400/0402 5SM -SHRA BKN050
     FM040200 33008KT P6SM SCT090
     FM041500 33013G22KT P6SM SCT050=



000
FTUS43 KARX 031720
TAFRST
TAF
KRST 031720Z 0318/0418 28017G27KT P6SM SCT060
     FM032300 30016G25KT P6SM SCT060
      TEMPO 0323/0401 6SM -SHRA BKN045
     FM040100 34010KT P6SM SCT080
     FM041500 35015G25KT P6SM SCT050=



000
FTUS43 KARX 031720
TAFLSE
TAF
KLSE 031720Z 0318/0418 26013G24KT P6SM SCT060
     FM040000 30011KT P6SM SCT060
      TEMPO 0400/0402 5SM -SHRA BKN050
     FM040200 33008KT P6SM SCT090
     FM041500 33013G22KT P6SM SCT050=



000
FTUS43 KARX 031120
TAFRST
TAF
KRST 031120Z 0312/0412 25010KT P6SM SKC
     FM031700 27017G28KT P6SM SCT060
     FM032300 30014G24KT 6SM -SHRA BKN050
     FM040100 34010KT P6SM SCT080=



000
FTUS43 KARX 031120
TAFLSE
TAF
KLSE 031120Z 0312/0412 23008KT P6SM SKC
     FM031800 27015G24KT P6SM SCT060
     FM040000 30010KT 6SM -SHRA BKN050
     FM040200 33007KT P6SM SCT080=



000
FTUS43 KARX 030520
TAFLSE
TAF
KLSE 030520Z 0306/0406 16004KT P6SM FEW090
     FM031300 22007KT P6SM SKC
     FM031800 26014G22KT P6SM SCT050
     FM040100 31008KT 6SM -SHRA BKN050
     FM040500 34005KT P6SM SCT080=



000
FTUS43 KARX 030520
TAFRST
TAF
KRST 030520Z 0306/0406 22006KT P6SM FEW090
     FM031300 25010KT P6SM SKC
     FM031800 27016G26KT P6SM SCT050
     FM040100 31012KT 6SM -SHRA BKN050
     FM040500 34010KT P6SM SCT080=



000
FTUS43 KARX 030520
TAFLSE
TAF
KLSE 030520Z 0306/0406 16004KT P6SM FEW090
     FM031300 22007KT P6SM SKC
     FM031800 26014G22KT P6SM SCT050
     FM040100 31008KT 6SM -SHRA BKN050
     FM040500 34005KT P6SM SCT080=



000
FTUS43 KARX 030520
TAFRST
TAF
KRST 030520Z 0306/0406 22006KT P6SM FEW090
     FM031300 25010KT P6SM SKC
     FM031800 27016G26KT P6SM SCT050
     FM040100 31012KT 6SM -SHRA BKN050
     FM040500 34010KT P6SM SCT080=



000
FTUS43 KARX 022323
TAFRST
TAF
KRST 022323Z 0300/0324 22006KT P6SM FEW090
     FM031300 25010KT P6SM SKC
     FM031800 27016G26KT P6SM SCT050=



000
FTUS43 KARX 022323
TAFLSE
TAF
KLSE 022323Z 0300/0324 19004KT P6SM FEW090
     FM031300 22007KT P6SM SKC
     FM031800 26014G22KT P6SM SCT050=



000
FTUS43 KARX 022323
TAFLSE
TAF
KLSE 022323Z 0300/0324 19004KT P6SM FEW090
     FM031300 22007KT P6SM SKC
     FM031800 26014G22KT P6SM SCT050=



000
FTUS43 KARX 022323
TAFRST
TAF
KRST 022323Z 0300/0324 22006KT P6SM FEW090
     FM031300 25010KT P6SM SKC
     FM031800 27016G26KT P6SM SCT050=



000
FTUS43 KARX 021720
TAFRST
TAF
KRST 021720Z 0218/0318 21008KT P6SM BKN050
     FM030000 20006KT P6SM SCT050
     FM031400 27014G20KT P6SM SCT050=



000
FTUS43 KARX 021720
TAFLSE
TAF
KLSE 021720Z 0218/0318 19006KT P6SM BKN050
     FM030000 17004KT P6SM SCT050
     FM031500 24011G17KT P6SM SCT050=



000
FTUS43 KARX 021720
TAFLSE
TAF
KLSE 021720Z 0218/0318 19006KT P6SM BKN050
     FM030000 17004KT P6SM SCT050
     FM031500 24011G17KT P6SM SCT050=



000
FTUS43 KARX 021720
TAFRST
TAF
KRST 021720Z 0218/0318 21008KT P6SM BKN050
     FM030000 20006KT P6SM SCT050
     FM031400 27014G20KT P6SM SCT050=



000
FTUS43 KARX 021123
TAFLSE
TAF
KLSE 021123Z 0212/0312 11004KT P6SM SCT080
     FM021700 17004KT P6SM BKN050
     FM022300 17003KT P6SM SCT050=



000
FTUS43 KARX 021123
TAFRST
TAF
KRST 021123Z 0212/0312 16005KT P6SM SCT080
     FM021700 20004KT P6SM BKN045
     FM030100 25006KT P6SM SCT045=



000
FTUS43 KARX 021123
TAFRST
TAF
KRST 021123Z 0212/0312 16005KT P6SM SCT080
     FM021700 20004KT P6SM BKN045
     FM030100 25006KT P6SM SCT045=



000
FTUS43 KARX 021123
TAFLSE
TAF
KLSE 021123Z 0212/0312 11004KT P6SM SCT080
     FM021700 17004KT P6SM BKN050
     FM022300 17003KT P6SM SCT050=



000
FTUS43 KARX 020953 AAB
TAFRST
TAF AMD
KRST 020953Z 0210/0306 VRB03KT P6SM SCT080
     FM021800 36005KT P6SM BKN045
     FM030100 24004KT P6SM SCT060=



000
FTUS43 KARX 020952 AAB
TAFLSE
TAF AMD
KLSE 020952Z 0210/0306 11003KT P6SM SCT080
     FM021800 30005KT P6SM BKN050
     FM030100 17003KT P6SM SCT070=



000
FTUS43 KARX 020705 AAA
TAFRST
TAF AMD
KRST 020705Z 0207/0306 26007KT P6SM BKN080
     FM021800 36005KT P6SM BKN045
     FM030100 24004KT P6SM SCT060=



000
FTUS43 KARX 020705 AAA
TAFRST
TAF AMD
KRST 020705Z 0207/0306 26007KT P6SM BKN080
     FM021800 36005KT P6SM BKN045
     FM030100 24004KT P6SM SCT060=



000
FTUS43 KARX 020704 AAA
TAFLSE
TAF AMD
KLSE 020704Z 0207/0306 09003KT P6SM BKN090
     FM021800 30005KT P6SM BKN050
     FM030100 17003KT P6SM SCT070=



000
FTUS43 KARX 020704 AAA
TAFLSE
TAF AMD
KLSE 020704Z 0207/0306 09003KT P6SM BKN090
     FM021800 30005KT P6SM BKN050
     FM030100 17003KT P6SM SCT070=



000
FTUS43 KARX 020520
TAFLSE
TAF
KLSE 020520Z 0206/0306 06003KT P6SM SCT100
     FM021800 30005KT P6SM BKN050
     FM030100 17003KT P6SM SCT070=



000
FTUS43 KARX 020520
TAFRST
TAF
KRST 020520Z 0206/0306 31004KT P6SM SCT100
     FM021800 36005KT P6SM BKN045
     FM030100 24004KT P6SM SCT060=



000
FTUS43 KARX 020520
TAFLSE
TAF
KLSE 020520Z 0206/0306 06003KT P6SM SCT100
     FM021800 30005KT P6SM BKN050
     FM030100 17003KT P6SM SCT070=



000
FTUS43 KARX 020520
TAFRST
TAF
KRST 020520Z 0206/0306 31004KT P6SM SCT100
     FM021800 36005KT P6SM BKN045
     FM030100 24004KT P6SM SCT060=



000
FTUS43 KARX 012333
TAFRST
TAF
KRST 012333Z 0200/0224 09006KT P6SM BKN080
     FM020400 36004KT P6SM SCT100
     FM021800 36005KT P6SM BKN045=



000
FTUS43 KARX 012333
TAFLSE
TAF
KLSE 012333Z 0200/0224 05005KT P6SM BKN080
     FM020400 06003KT P6SM SCT100
     FM021800 30005KT P6SM BKN050=



000
FTUS43 KARX 012333
TAFLSE
TAF
KLSE 012333Z 0200/0224 05005KT P6SM BKN080
     FM020400 06003KT P6SM SCT100
     FM021800 30005KT P6SM BKN050=



000
FTUS43 KARX 012333
TAFRST
TAF
KRST 012333Z 0200/0224 09006KT P6SM BKN080
     FM020400 36004KT P6SM SCT100
     FM021800 36005KT P6SM BKN045=



000
FTUS43 KARX 011725 CCA
TAFRST
TAF COR
KRST 011725Z 0118/0218 03011G20KT P6SM BKN050
     FM020100 03008KT P6SM SCT050=



000
FTUS43 KARX 011720
TAFLSE
TAF
KLSE 011720Z 0118/0218 03010G15KT P6SM BKN050
     FM020100 03005KT P6SM SCT050=



000
FTUS43 KARX 011720
TAFRST
TAF
KRST 011720Z 0118/0218 05014G20KT P6SM BKN050
     FM020100 03008KT P6SM SCT050=



000
FTUS43 KARX 011131
TAFRST
TAF
KRST 011131Z 0112/0212 02008KT P6SM OVC040
     FM011500 05013G20KT P6SM BKN040
     FM020000 03008KT P6SM BKN040
     FM020900 02004KT P6SM SCT040=



000
FTUS43 KARX 011131
TAFLSE
TAF
KLSE 011131Z 0112/0212 01006KT P6SM OVC050
     FM011500 03010G15KT P6SM OVC050
     FM020000 03004KT P6SM BKN050
     FM020900 04003KT P6SM SCT050=



000
FTUS43 KARX 010824 AAA
TAFRST
TAF AMD
KRST 010824Z 0108/0206 03007KT P6SM OVC040
     FM011100 05011KT P6SM OVC035
     FM011500 05013G20KT P6SM BKN040
     FM020000 03008KT P6SM SCT100=



    US Dept of Commerce
    National Oceanic and Atmospheric Administration
    National Weather Service
    1325 East West Highway
    Silver Spring, MD 20910
    Page Author: NWS Internet Services Team
Disclaimer
Information Quality
Credits
Glossary
Privacy Policy
Freedom of Information Act (FOIA)
About Us
Career Opportunities